Nuckols, Kentucky
Current Conditions -  °F | °C
As of 9:56 PM on Thursday 18 Dec 2014 (Local Time) from KOWB Reporting Station
Overcast Overcast  
Wind Chill: 27°   Ceiling: 4000
Heat Index: 33°   Visibility: 10mi
Dew Point: 27°   Wind: 6mph
Humidity: 79%   Direction: NA
Pressure: 30.28"   Gusts: NA
Location:  37.517°N, 87.0795°W
Report Text: KOWB 190356Z VRB05KT 10SM BKN040 OVC070 01/M03 A3028 RMK AO2 T00051027 SLP257
Loading
Personal Weather Stations






























Interactive Weather Map New forecast layout! Learn more

10-Day Weather Forecast

Advertisements
Track Severe Weather on mobile